Time;durP1;ratioP1;P1;durP2;ratioP2;P2;SDS_P1;SDS_P2;PMS_P1;PMS_P2;Temp;Humidity;BMP_temperature;BMP_pressure;BME280_temperature;BME280_humidity;BME280_pressure;Samples;Min_cycle;Max_cycle;Signal;HPM_P1;HPM_P2
2023/12/10 00:02:06;;;;;;;3.53;3.23;;;;;;;2.85;100.00;94302.03;7400421;19;20496;-95
2023/12/10 00:04:33;;;;;;;3.00;2.80;;;;;;;2.80;100.00;94291.06;7401573;19;20367;-96
2023/12/10 00:07:01;;;;;;;3.67;3.10;;;;;;;2.80;100.00;94288.47;7399700;19;20728;-95
2023/12/10 00:09:28;;;;;;;3.37;3.07;;;;;;;3.37;100.00;94379.22;7401107;19;20684;-95
2023/12/10 00:11:55;;;;;;;3.23;3.03;;;;;;;3.19;100.00;94340.28;7399824;19;20387;-94
2023/12/10 00:14:24;;;;;;;3.93;3.10;;;;;;;3.06;100.00;94338.56;7401499;19;20380;-93
2023/12/10 00:16:52;;;;;;;2.93;2.73;;;;;;;3.47;100.00;94407.47;7402373;19;20412;-95
2023/12/10 00:19:20;;;;;;;3.10;2.90;;;;;;;2.89;100.00;94320.34;7402219;19;20412;-95
2023/12/10 00:21:47;;;;;;;3.73;3.40;;;;;;;2.70;100.00;94303.19;7400513;19;20971;-95
2023/12/10 00:24:15;;;;;;;10.83;6.20;;;;;;;3.04;100.00;94358.06;7401394;19;21046;-95
2023/12/10 00:26:42;;;;;;;9.50;7.90;;;;;;;2.60;100.00;94298.28;7400831;19;20471;-95
2023/12/10 00:29:09;;;;;;;7.37;4.50;;;;;;;2.50;100.00;94283.00;7401404;19;20396;-95
2023/12/10 00:31:37;;;;;;;8.10;4.83;;;;;;;2.72;100.00;94289.94;7401838;19;20772;-95
2023/12/10 00:34:04;;;;;;;6.83;6.23;;;;;;;3.15;100.00;94370.44;7402081;19;20390;-95
2023/12/10 00:36:32;;;;;;;4.40;4.10;;;;;;;2.78;100.00;94334.63;7401756;19;20390;-94
2023/12/10 00:38:59;;;;;;;5.23;4.33;;;;;;;2.69;100.00;94342.34;7400853;19;20378;-96
2023/12/10 00:41:27;;;;;;;5.23;4.43;;;;;;;2.34;100.00;94316.25;7401083;19;20382;-94
2023/12/10 00:43:54;;;;;;;4.73;4.20;;;;;;;3.08;100.00;94426.34;7402506;19;20467;-94
2023/12/10 00:46:25;;;;;;;4.93;4.43;;;;;;;1.99;100.00;94289.41;7400217;19;20410;-94
2023/12/10 00:48:52;;;;;;;4.90;4.40;;;;;;;2.71;100.00;94392.78;7400905;19;20388;-94
2023/12/10 00:51:21;;;;;;;5.07;4.57;;;;;;;2.28;100.00;94332.97;7399018;19;20476;-94
2023/12/10 00:53:49;;;;;;;4.70;4.20;;;;;;;2.52;100.00;94368.13;7400479;19;20398;-95
2023/12/10 00:56:17;;;;;;;5.13;4.10;;;;;;;2.72;100.00;94415.00;7399749;19;20864;-94
2023/12/10 00:58:44;;;;;;;4.53;3.93;;;;;;;2.80;100.00;94431.69;7397835;19;20394;-95
2023/12/10 01:01:12;;;;;;;5.27;4.53;;;;;;;3.11;100.00;94467.22;7398858;19;20407;-94
2023/12/10 01:03:39;;;;;;;6.70;4.90;;;;;;;2.80;100.00;94425.75;7399321;19;20474;-95
2023/12/10 01:06:08;;;;;;;5.07;4.60;;;;;;;2.76;100.00;94435.13;7399118;19;20461;-94
2023/12/10 01:08:35;;;;;;;4.50;4.10;;;;;;;3.24;100.00;94511.19;7399640;19;20390;-95
2023/12/10 01:11:04;;;;;;;8.43;5.90;;;;;;;2.64;100.00;94423.50;7398388;19;20395;-96
2023/12/10 01:13:31;;;;;;;7.77;5.80;;;;;;;2.49;100.00;94395.34;7399541;19;20386;-94
2023/12/10 01:15:58;;;;;;;4.97;4.57;;;;;;;2.85;100.00;94428.97;7400392;19;20386;-94
2023/12/10 01:18:25;;;;;;;7.80;5.00;;;;;;;2.62;100.00;94409.31;7399001;19;20877;-93
2023/12/10 01:20:53;;;;;;;4.80;4.40;;;;;;;2.32;100.00;94382.31;7398841;19;20773;-94
2023/12/10 01:23:20;;;;;;;5.07;4.57;;;;;;;2.70;100.00;94429.31;7399400;19;20710;-95
2023/12/10 01:25:47;;;;;;;4.97;4.47;;;;;;;3.05;100.00;94445.09;7398634;19;20759;-95
2023/12/10 01:28:15;;;;;;;4.40;4.00;;;;;;;3.82;100.00;94536.22;7399117;19;20916;-95
2023/12/10 01:30:42;;;;;;;5.07;4.67;;;;;;;3.05;100.00;94432.91;7399119;19;20478;-95
2023/12/10 01:33:10;;;;;;;4.63;4.23;;;;;;;3.09;100.00;94466.75;7398971;19;20368;-95
2023/12/10 01:35:37;;;;;;;5.27;4.77;;;;;;;2.70;100.00;94437.84;7399076;19;20405;-95
2023/12/10 01:38:05;;;;;;;5.43;5.03;;;;;;;2.54;100.00;94439.28;7398519;19;20372;-95
2023/12/10 01:40:33;;;;;;;6.00;5.10;;;;;;;2.92;100.00;94498.50;7398173;19;20355;-94
2023/12/10 01:43:11;;;;;;;5.87;5.27;;;;;;;2.72;100.00;94482.34;7398367;19;20362;-95
2023/12/10 01:45:39;;;;;;;4.17;3.83;;;;;;;2.80;100.00;94490.50;7399415;19;20330;-94
2023/12/10 01:48:08;;;;;;;4.33;3.93;;;;;;;2.66;100.00;94468.00;7396749;19;20358;-94
2023/12/10 01:50:36;;;;;;;5.23;4.73;;;;;;;2.82;100.00;94490.94;7397895;19;20371;-94
2023/12/10 01:53:03;;;;;;;4.87;4.37;;;;;;;2.71;100.00;94483.41;7398624;19;20376;-94
2023/12/10 01:55:33;;;;;;;5.87;5.37;;;;;;;2.77;100.00;94497.03;7398464;19;20374;-94
2023/12/10 01:58:04;;;;;;;5.53;5.03;;;;;;;1.96;100.00;94372.72;7394757;19;20795;-95
2023/12/10 02:00:32;;;;;;;4.77;4.27;;;;;;;3.36;100.00;94578.06;7397457;19;20446;-94
2023/12/10 02:03:02;;;;;;;4.63;4.23;;;;;;;3.60;100.00;94492.19;7395636;19;20380;-95
2023/12/10 02:05:30;;;;;;;5.80;5.30;;;;;;;3.35;100.00;94487.63;7396453;19;20370;-95
2023/12/10 02:07:58;;;;;;;8.63;4.33;;;;;;;4.06;100.00;94483.94;7392932;19;20384;-94
2023/12/10 02:10:25;;;;;;;6.33;3.10;;;;;;;3.87;100.00;94434.91;7394333;19;20915;-94
2023/12/10 02:12:54;;;;;;;6.10;3.30;;;;;;;4.86;100.00;94517.50;7395954;19;20391;-95
2023/12/10 02:15:22;;;;;;;3.13;2.37;;;;;;;5.18;100.00;94540.44;7395926;19;20390;-94
2023/12/10 02:17:49;;;;;;;9.03;2.27;;;;;;;5.82;100.00;94625.59;7395165;19;20383;-94
2023/12/10 02:20:17;;;;;;;4.60;2.77;;;;;;;6.06;100.00;94630.31;7395538;19;20427;-93
2023/12/10 02:23:09;;;;;;;5.73;2.23;;;;;;;6.16;100.00;94640.38;7392262;19;20416;-93
2023/12/10 02:25:38;;;;;;;9.40;3.17;;;;;;;6.37;100.00;94638.66;7395700;19;20366;-94
2023/12/10 02:28:08;;;;;;;5.60;2.17;;;;;;;5.73;100.00;94533.78;7392822;19;20462;-93
2023/12/10 02:30:36;;;;;;;11.73;1.97;;;;;;;5.77;100.00;94571.13;7394554;19;20872;-93
2023/12/10 02:33:03;;;;;;;6.23;2.53;;;;;;;6.19;100.00;94569.44;7394965;19;20379;-93
2023/12/10 02:35:31;;;;;;;4.53;2.03;;;;;;;5.92;100.00;94527.13;7395000;19;20370;-92
2023/12/10 02:37:58;;;;;;;5.23;2.60;;;;;;;6.14;100.00;94544.34;7395117;19;20405;-92
2023/12/10 02:40:26;;;;;;;11.03;4.10;;;;;;;6.11;100.00;94562.44;7394485;19;20383;-94
2023/12/10 02:42:53;;;;;;;4.10;1.67;;;;;;;6.61;100.00;94627.66;7395039;19;20380;-93
2023/12/10 02:45:21;;;;;;;9.60;2.27;;;;;;;6.76;100.00;94644.59;7394933;19;20457;-93
2023/12/10 02:47:48;;;;;;;9.53;2.87;;;;;;;6.30;100.00;94588.09;7392627;19;20394;-93
2023/12/10 02:50:16;;;;;;;5.87;1.93;;;;;;;6.51;100.00;94615.75;7394082;19;20391;-93
2023/12/10 02:52:43;;;;;;;6.20;2.37;;;;;;;6.49;100.00;94619.72;7391264;19;20407;-94
2023/12/10 02:55:11;;;;;;;5.67;3.27;;;;;;;6.60;100.00;94643.59;7394683;19;20388;-94
2023/12/10 02:57:38;;;;;;;4.97;1.73;;;;;;;6.40;100.00;94619.78;7246302;19;2904431;-94
2023/12/10 03:00:08;;;;;;;5.90;2.30;;;;;;;6.40;100.00;94622.38;7398241;19;20130;-94
2023/12/10 03:02:35;;;;;;;12.90;2.90;;;;;;;6.10;100.00;94574.66;7394293;19;20431;-93
2023/12/10 03:05:03;;;;;;;5.37;2.50;;;;;;;6.39;100.00;94612.28;7395870;19;20391;-93
2023/12/10 03:07:30;;;;;;;4.57;1.80;;;;;;;6.20;100.00;94597.00;7394633;19;20378;-93
2023/12/10 03:09:58;;;;;;;6.93;2.43;;;;;;;6.71;100.00;94676.81;7395695;19;20376;-93
2023/12/10 03:12:25;;;;;;;4.00;2.50;;;;;;;6.55;100.00;94657.59;7393985;19;20404;-93
2023/12/10 03:14:53;;;;;;;5.70;2.70;;;;;;;6.36;100.00;94628.50;7395520;19;20398;-93
2023/12/10 03:17:20;;;;;;;8.07;3.10;;;;;;;6.13;100.00;94602.72;7396297;19;20387;-92
2023/12/10 03:19:48;;;;;;;6.40;2.60;;;;;;;6.31;100.00;94629.47;7395511;19;20901;-93
2023/12/10 03:22:15;;;;;;;7.53;3.03;;;;;;;6.72;100.00;94699.22;7397687;19;20419;-93
2023/12/10 03:24:42;;;;;;;10.23;2.50;;;;;;;6.67;100.00;94691.56;7403366;19;20377;-94
2023/12/10 03:27:10;;;;;;;16.20;3.87;;;;;;;6.40;100.00;94652.88;7401631;19;20409;-94
2023/12/10 03:29:37;;;;;;;15.30;3.00;;;;;;;6.94;100.00;94747.00;7402689;19;20368;-93
2023/12/10 03:32:06;;;;;;;11.60;3.33;;;;;;;6.54;100.00;94687.31;7401159;19;20426;-93
2023/12/10 03:34:33;;;;;;;9.90;3.10;;;;;;;6.65;100.00;94711.97;7402546;19;20411;-93
2023/12/10 03:37:01;;;;;;;8.77;2.60;;;;;;;6.73;100.00;94732.03;7404345;19;20375;-93
2023/12/10 03:39:28;;;;;;;11.80;3.47;;;;;;;6.12;100.00;94649.91;7402107;19;20362;-94
2023/12/10 03:41:55;;;;;;;7.47;2.73;;;;;;;6.51;100.00;94714.78;7400891;19;20413;-94
2023/12/10 03:44:23;;;;;;;7.60;1.77;;;;;;;6.57;100.00;94717.97;7402786;19;20386;-94
2023/12/10 03:46:51;;;;;;;8.70;2.40;;;;;;;6.72;100.00;94748.75;7401684;19;20395;-95
2023/12/10 03:49:18;;;;;;;9.30;2.43;;;;;;;6.54;100.00;94734.25;7401853;19;20898;-94
2023/12/10 03:51:45;;;;;;;7.00;3.00;;;;;;;6.30;100.00;94713.91;7400329;19;20384;-94
2023/12/10 03:54:13;;;;;;;5.70;2.50;;;;;;;6.47;100.00;94739.91;7402894;19;20737;-93
2023/12/10 03:56:40;;;;;;;6.07;3.27;;;;;;;6.10;100.00;94697.06;7401301;19;20374;-94
2023/12/10 03:59:08;;;;;;;8.70;3.40;;;;;;;6.42;100.00;94745.28;7402680;19;20375;-92
2023/12/10 04:01:35;;;;;;;8.13;2.40;;;;;;;6.43;100.00;94740.84;7400756;19;20430;-93
2023/12/10 04:04:03;;;;;;;9.13;2.87;;;;;;;6.55;100.00;94774.84;7402193;19;20391;-95
2023/12/10 04:06:30;;;;;;;16.43;3.50;;;;;;;6.76;100.00;94808.84;7403562;19;20393;-94
2023/12/10 04:08:58;;;;;;;16.63;3.50;;;;;;;6.66;100.00;94794.31;7398956;19;20888;-93
2023/12/10 04:11:25;;;;;;;21.63;5.00;;;;;;;5.58;100.00;94626.09;7400363;19;20407;-93
2023/12/10 04:13:53;;;;;;;12.93;3.60;;;;;;;6.48;100.00;94769.34;7401534;19;20406;-93
2023/12/10 04:16:30;;;;;;;10.90;2.70;;;;;;;7.13;100.00;94877.78;7401010;19;20442;-93
2023/12/10 04:18:57;;;;;;;13.80;3.27;;;;;;;6.83;100.00;94837.81;7400863;19;20399;-93
2023/12/10 04:21:25;;;;;;;8.70;3.40;;;;;;;6.80;100.00;94841.06;7400191;19;20431;-94
2023/12/10 04:23:52;;;;;;;15.83;2.90;;;;;;;6.56;100.00;94799.84;7401315;19;20712;-93
2023/12/10 04:26:20;;;;;;;20.37;4.57;;;;;;;6.69;100.00;94827.56;7400592;19;20467;-93
2023/12/10 04:28:47;;;;;;;10.33;3.13;;;;;;;6.67;100.00;94832.34;7399240;19;20863;-94
2023/12/10 04:31:15;;;;;;;8.10;2.93;;;;;;;6.26;100.00;94773.69;7400123;19;20935;-93
2023/12/10 04:33:44;;;;;;;9.90;3.87;;;;;;;6.47;100.00;94814.72;7401733;19;20359;-94
2023/12/10 04:36:13;;;;;;;9.17;3.17;;;;;;;6.60;100.00;94836.47;7402459;19;20440;-93
2023/12/10 04:38:41;;;;;;;10.63;3.73;;;;;;;6.57;100.00;94837.84;7400367;19;20443;-92
2023/12/10 04:41:08;;;;;;;19.80;4.40;;;;;;;6.62;100.00;94850.72;7399982;19;20899;-93
2023/12/10 04:43:36;;;;;;;11.83;4.10;;;;;;;6.85;100.00;94874.78;7400802;19;20387;-93
2023/12/10 04:46:04;;;;;;;16.47;3.83;;;;;;;6.77;100.00;94886.78;7399773;19;20385;-92
2023/12/10 04:48:31;;;;;;;24.90;4.23;;;;;;;6.67;100.00;94868.81;7398778;19;20415;-93
2023/12/10 04:50:59;;;;;;;18.93;4.60;;;;;;;6.22;100.00;94811.03;7399358;19;20395;-93
2023/12/10 04:53:26;;;;;;;11.13;3.57;;;;;;;6.51;100.00;94852.91;7400193;19;20426;-94
2023/12/10 04:55:54;;;;;;;10.57;3.90;;;;;;;6.37;100.00;94843.69;7400086;19;20466;-93
2023/12/10 04:58:28;;;;;;;14.00;3.73;;;;;;;6.64;100.00;94898.13;7397989;19;20884;-93
2023/12/10 05:01:01;;;;;;;13.47;4.43;;;;;;;6.42;100.00;94874.81;7400745;19;20471;-94
2023/12/10 05:03:29;;;;;;;13.10;3.63;;;;;;;6.41;100.00;94878.50;7402103;19;20854;-93
2023/12/10 05:05:57;;;;;;;10.37;3.30;;;;;;;5.85;100.00;94783.78;7399238;19;20371;-93
2023/12/10 05:08:24;;;;;;;22.80;4.23;;;;;;;6.61;100.00;94909.13;7398232;19;20424;-93
2023/12/10 05:10:52;;;;;;;16.70;6.10;;;;;;;6.49;100.00;94883.69;7398971;19;20798;-93
2023/12/10 05:13:19;;;;;;;23.33;3.87;;;;;;;6.54;100.00;94880.19;7399645;19;20370;-93
2023/12/10 05:15:46;;;;;;;8.63;2.97;;;;;;;6.38;100.00;94916.34;7398743;19;20387;-93
2023/12/10 05:18:14;;;;;;;14.73;3.30;;;;;;;6.67;100.00;94969.72;7398891;19;20383;-93
2023/12/10 05:20:42;;;;;;;11.97;4.30;;;;;;;6.43;100.00;94960.50;7398582;19;20371;-93
2023/12/10 05:23:09;;;;;;;12.00;4.20;;;;;;;5.71;100.00;94872.41;7398895;19;20365;-93
2023/12/10 05:25:37;;;;;;;19.60;5.87;;;;;;;6.16;100.00;94887.81;7398696;19;20383;-93
2023/12/10 05:28:04;;;;;;;17.53;5.97;;;;;;;5.89;100.00;94841.97;7397962;19;20458;-93
2023/12/10 05:30:32;;;;;;;17.23;4.60;;;;;;;6.15;100.00;94910.50;7399193;19;20442;-93
2023/12/10 05:33:02;;;;;;;14.40;4.07;;;;;;;5.38;100.00;94875.34;7398598;19;20379;-94
2023/12/10 05:35:29;;;;;;;15.37;4.47;;;;;;;5.24;100.00;94892.88;7398907;19;20391;-93
2023/12/10 05:37:57;;;;;;;20.27;5.53;;;;;;;5.58;100.00;94901.91;7399044;19;20412;-94
2023/12/10 05:40:25;;;;;;;17.47;4.83;;;;;;;6.06;100.00;94968.84;7398067;19;20373;-93
2023/12/10 05:42:53;;;;;;;10.73;4.37;;;;;;;5.99;100.00;94914.59;7399147;19;20375;-93
2023/12/10 05:45:20;;;;;;;24.93;6.20;;;;;;;5.75;100.00;94890.78;7396426;19;20383;-94
2023/12/10 05:47:48;;;;;;;14.53;4.43;;;;;;;5.85;100.00;94926.97;7397505;19;20888;-93
2023/12/10 05:50:16;;;;;;;16.77;4.87;;;;;;;5.69;100.00;94887.53;7398746;19;20395;-93
2023/12/10 05:52:44;;;;;;;15.20;4.23;;;;;;;6.12;100.00;94937.16;7396930;19;20380;-92
2023/12/10 05:55:11;;;;;;;13.50;4.00;;;;;;;5.49;100.00;94831.63;7399114;19;20396;-93
2023/12/10 05:57:38;;;;;;;24.57;4.80;;;;;;;6.69;100.00;94991.03;7396875;19;20392;-93
2023/12/10 06:00:07;;;;;;;16.30;4.60;;;;;;;6.61;100.00;94969.09;7398649;19;20384;-93
2023/12/10 06:02:34;;;;;;;16.17;3.40;;;;;;;6.37;100.00;94927.84;7397099;19;20419;-93
2023/12/10 06:05:05;;;;;;;15.10;4.63;;;;;;;6.31;100.00;94907.44;7397587;19;20383;-94
2023/12/10 06:07:35;;;;;;;14.10;3.87;;;;;;;6.37;100.00;94919.25;7397112;19;20449;-93
2023/12/10 06:10:03;;;;;;;14.77;3.90;;;;;;;6.75;100.00;94972.31;7397379;19;20384;-93
2023/12/10 06:12:30;;;;;;;14.67;5.53;;;;;;;6.36;100.00;94915.09;7396450;19;20440;-93
2023/12/10 06:14:58;;;;;;;17.10;3.60;;;;;;;6.73;100.00;94951.00;7397447;19;20388;-93
2023/12/10 06:17:26;;;;;;;15.97;4.00;;;;;;;6.88;100.00;94968.78;7397852;19;20371;-93
2023/12/10 06:19:53;;;;;;;15.30;3.47;;;;;;;6.73;100.00;94965.88;7397541;19;20393;-94
2023/12/10 06:22:21;;;;;;;17.23;3.57;;;;;;;7.05;100.00;95025.44;7395851;19;20444;-93
2023/12/10 06:24:51;;;;;;;16.53;4.77;;;;;;;6.83;100.00;95002.84;7399274;19;20824;-93
2023/12/10 06:27:18;;;;;;;18.17;7.17;;;;;;;6.92;100.00;95025.56;7398441;19;20361;-94
2023/12/10 06:29:45;;;;;;;13.03;7.37;;;;;;;6.61;100.00;94989.94;7395879;19;20403;-93
2023/12/10 06:32:13;;;;;;;21.00;8.90;;;;;;;6.35;100.00;94958.63;7396556;19;20912;-93
2023/12/10 06:34:40;;;;;;;13.17;5.80;;;;;;;6.52;100.00;94991.78;7397849;19;20738;-93
2023/12/10 06:37:08;;;;;;;11.97;3.97;;;;;;;6.64;100.00;95012.03;7397609;19;20379;-93
2023/12/10 06:39:35;;;;;;;7.47;4.10;;;;;;;6.85;100.00;95042.44;7397666;19;20395;-93
2023/12/10 06:42:03;;;;;;;9.47;3.07;;;;;;;6.24;100.00;94976.41;7396197;19;20419;-92
2023/12/10 06:44:32;;;;;;;18.10;3.43;;;;;;;6.42;100.00;95002.50;7397267;19;20375;-93
2023/12/10 06:46:59;;;;;;;13.27;3.33;;;;;;;6.68;100.00;95044.25;7397289;19;20458;-94
2023/12/10 06:49:26;;;;;;;9.50;2.73;;;;;;;6.10;100.00;94980.16;7395860;19;20394;-92
2023/12/10 06:51:54;;;;;;;11.17;3.47;;;;;;;5.98;100.00;94958.09;7395133;19;20731;-95
2023/12/10 06:54:22;;;;;;;5.87;3.07;;;;;;;7.14;100.00;95121.94;7397184;19;20368;-95
2023/12/10 06:56:49;;;;;;;19.27;4.93;;;;;;;6.76;100.00;95078.16;7401360;19;20394;-96
2023/12/10 06:59:16;;;;;;;11.13;4.30;;;;;;;6.57;100.00;95052.34;7404636;19;20695;-92
2023/12/10 07:01:44;;;;;;;16.27;5.10;;;;;;;6.85;100.00;95097.19;7403185;19;20491;-93
2023/12/10 07:04:11;;;;;;;7.97;3.10;;;;;;;6.67;100.00;95056.53;7404261;19;20394;-96
2023/12/10 07:06:39;;;;;;;4.67;4.10;;;;;;;6.49;100.00;95049.72;7404420;19;20448;-94
2023/12/10 07:09:06;;;;;;;11.93;5.47;;;;;;;6.66;100.00;95075.84;7402559;19;20392;-94
2023/12/10 07:11:34;;;;;;;10.77;3.87;;;;;;;6.44;100.00;95034.22;7402005;19;20405;-94
2023/12/10 07:14:01;;;;;;;15.60;5.93;;;;;;;6.21;100.00;95023.13;7403910;19;20383;-94
2023/12/10 07:16:29;;;;;;;13.23;5.43;;;;;;;6.64;100.00;95093.63;7402681;19;20375;-95
2023/12/10 07:18:56;;;;;;;17.07;3.63;;;;;;;6.68;100.00;95091.19;7403392;19;20366;-95
2023/12/10 07:21:23;;;;;;;10.93;3.47;;;;;;;6.42;100.00;95054.59;7401603;19;20489;-95
2023/12/10 07:23:51;;;;;;;13.93;3.80;;;;;;;6.20;100.00;95045.78;7402617;19;20860;-95
2023/12/10 07:26:22;;;;;;;16.83;4.67;;;;;;;6.51;100.00;95081.47;7402906;19;20717;-93
2023/12/10 07:28:53;;;;;;;11.77;5.60;;;;;;;6.50;100.00;95093.75;7401804;19;20396;-94
2023/12/10 07:31:20;;;;;;;17.40;6.67;;;;;;;6.74;100.00;95129.06;7401585;19;20403;-94
2023/12/10 07:33:48;;;;;;;11.93;4.87;;;;;;;6.27;100.00;95090.44;7402579;19;20374;-94
2023/12/10 07:36:15;;;;;;;11.03;5.30;;;;;;;6.28;100.00;95097.16;7402181;19;20388;-94
2023/12/10 07:38:43;;;;;;;12.60;4.13;;;;;;;6.73;100.00;95184.88;7402778;19;20372;-94
2023/12/10 07:41:11;;;;;;;12.80;3.00;;;;;;;6.36;100.00;95123.53;7403541;19;20410;-95
2023/12/10 07:43:39;;;;;;;9.83;3.40;;;;;;;6.97;100.00;95206.16;7401941;19;20387;-95
2023/12/10 07:46:06;;;;;;;10.30;5.40;;;;;;;6.62;100.00;95147.88;7402427;19;20395;-94
2023/12/10 07:48:34;;;;;;;10.90;4.13;;;;;;;6.52;100.00;95125.47;7401904;19;20410;-94
2023/12/10 07:51:01;;;;;;;5.43;2.23;;;;;;;6.67;100.00;95158.19;7401181;19;20421;-94
2023/12/10 07:53:29;;;;;;;11.13;2.90;;;;;;;6.58;100.00;95123.50;7403602;19;20373;-93
2023/12/10 07:55:56;;;;;;;12.60;3.30;;;;;;;6.56;100.00;95126.41;7401661;19;20392;-94
2023/12/10 07:58:24;;;;;;;10.87;2.87;;;;;;;6.85;100.00;95174.66;7399755;19;20420;-94
2023/12/10 08:00:51;;;;;;;13.37;2.70;;;;;;;6.71;100.00;95159.13;7400942;19;20418;-93
2023/12/10 08:03:19;;;;;;;9.37;1.93;;;;;;;6.76;100.00;95163.41;7402197;19;20382;-95
2023/12/10 08:05:46;;;;;;;10.43;2.80;;;;;;;7.20;100.00;95243.38;7402548;19;20407;-93
2023/12/10 08:08:14;;;;;;;9.47;2.40;;;;;;;7.14;100.00;95234.13;7399367;19;20372;-94
2023/12/10 08:10:41;;;;;;;7.90;4.20;;;;;;;6.67;100.00;95160.03;7401702;19;20390;-94
2023/12/10 08:13:09;;;;;;;7.53;2.60;;;;;;;6.70;100.00;95169.84;7401485;19;20383;-92
2023/12/10 08:15:36;;;;;;;11.20;3.53;;;;;;;7.01;100.00;95222.72;7401412;19;20388;-93
2023/12/10 08:18:06;;;;;;;7.50;2.03;;;;;;;6.87;100.00;95199.34;7401864;19;20384;-93
2023/12/10 08:20:34;;;;;;;13.17;2.63;;;;;;;7.16;100.00;95240.56;7400911;19;20382;-93
2023/12/10 08:23:02;;;;;;;13.80;3.70;;;;;;;6.70;100.00;95175.84;7401238;19;20376;-93
2023/12/10 08:25:32;;;;;;;15.17;2.27;;;;;;;6.91;100.00;95217.81;7401664;19;20371;-93
2023/12/10 08:28:01;;;;;;;12.00;3.00;;;;;;;7.30;100.00;95292.66;7400641;19;20378;-93
2023/12/10 08:30:34;;;;;;;11.93;3.97;;;;;;;7.09;100.00;95257.75;7398683;19;20355;-93
2023/12/10 08:33:04;;;;;;;11.70;5.13;;;;;;;7.18;100.00;95263.78;7400765;19;20363;-93
2023/12/10 08:35:39;;;;;;;10.87;5.23;;;;;;;7.26;100.00;95260.41;7401429;19;20399;-93
2023/12/10 08:38:06;;;;;;;8.27;5.87;;;;;;;6.83;100.00;95202.88;7401204;19;20372;-89
2023/12/10 08:40:34;;;;;;;15.33;6.27;;;;;;;6.76;100.00;95211.13;7400778;19;20440;-89
2023/12/10 08:43:01;;;;;;;19.63;5.50;;;;;;;6.42;100.00;95143.22;7399761;19;20360;-90
2023/12/10 08:45:30;;;;;;;11.30;6.57;;;;;;;6.72;100.00;95191.94;7399530;19;20363;-94
2023/12/10 08:47:59;;;;;;;7.33;3.97;;;;;;;7.05;100.00;95241.19;7399847;19;20384;-93
2023/12/10 08:50:27;;;;;;;12.70;4.10;;;;;;;6.58;100.00;95183.44;7397990;19;20873;-94
2023/12/10 08:52:54;;;;;;;12.53;3.30;;;;;;;6.95;100.00;95223.19;7400426;19;20398;-94
2023/12/10 08:55:21;;;;;;;10.23;4.80;;;;;;;6.82;100.00;95189.06;7399599;19;20367;-94
2023/12/10 08:57:49;;;;;;;14.67;6.00;;;;;;;7.01;100.00;95225.34;7399067;19;20467;-94
2023/12/10 09:00:16;;;;;;;15.47;4.47;;;;;;;6.95;100.00;95208.28;7399955;19;20378;-94
2023/12/10 09:02:44;;;;;;;11.47;3.83;;;;;;;6.83;100.00;95195.06;7398060;19;20565;-95
2023/12/10 09:05:11;;;;;;;12.80;3.73;;;;;;;7.20;100.00;95245.97;7400132;19;20358;-95
2023/12/10 09:07:39;;;;;;;11.50;5.17;;;;;;;7.52;100.00;95294.44;7400338;19;20395;-94
2023/12/10 09:10:06;;;;;;;9.00;4.83;;;;;;;7.39;100.00;95275.19;7398526;19;20397;-95
2023/12/10 09:12:39;;;;;;;6.70;2.40;;;;;;;7.20;100.00;95232.16;7398556;19;20426;-95
2023/12/10 09:15:09;;;;;;;20.30;4.10;;;;;;;7.66;100.00;95295.06;7399338;19;20392;-94
2023/12/10 09:17:40;;;;;;;17.70;3.60;;;;;;;7.14;100.00;95214.03;7399503;19;20383;-95
2023/12/10 09:20:22;;;;;;;17.00;7.33;;;;;;;7.44;100.00;95250.81;7396985;19;20375;-94
2023/12/10 09:22:50;;;;;;;11.83;3.50;;;;;;;7.09;100.00;95203.75;7398067;19;20407;-94
2023/12/10 09:25:19;;;;;;;10.67;2.80;;;;;;;7.24;100.00;95215.59;7404785;19;20414;-95
2023/12/10 09:27:51;;;;;;;16.53;8.40;;;;;;;7.42;100.00;95245.88;7398910;19;20462;-95
2023/12/10 09:30:25;;;;;;;13.03;6.20;;;;;;;7.18;100.00;95208.22;7397655;19;20419;-94
2023/12/10 09:32:53;;;;;;;24.60;12.40;;;;;;;7.61;100.00;95269.13;7399486;19;20391;-95
2023/12/10 09:35:21;;;;;;;19.73;5.00;;;;;;;7.05;100.00;95202.03;7398510;19;20391;-95
2023/12/10 09:37:48;;;;;;;13.57;4.63;;;;;;;7.12;100.00;95210.19;7399408;19;20456;-95
2023/12/10 09:40:16;;;;;;;14.80;6.20;;;;;;;7.64;100.00;95272.97;7399408;19;20409;-94
2023/12/10 09:42:49;;;;;;;9.10;3.73;;;;;;;6.84;100.00;95134.78;7397284;19;20404;-96
2023/12/10 09:45:16;;;;;;;32.10;13.60;;;;;;;6.43;100.00;95079.59;7398595;19;20376;-94
2023/12/10 09:47:47;;;;;;;22.30;11.90;;;;;;;7.42;100.00;95209.31;7399067;19;20370;-95
2023/12/10 09:50:14;;;;;;;15.43;3.93;;;;;;;7.20;100.00;95169.53;7397223;19;20863;-95
2023/12/10 09:52:42;;;;;;;15.73;4.47;;;;;;;7.44;100.00;95204.59;7396743;19;20403;-96
2023/12/10 09:55:11;;;;;;;7.83;3.03;;;;;;;7.87;100.00;95253.50;7398875;19;20408;-96
2023/12/10 09:57:39;;;;;;;16.60;7.30;;;;;;;7.66;100.00;95248.06;7397094;19;20408;-95
2023/12/10 10:00:12;;;;;;;7.00;3.40;;;;;;;8.04;100.00;95291.91;7398650;19;20379;-95
2023/12/10 10:02:40;;;;;;;9.00;3.27;;;;;;;7.50;100.00;95217.50;7396328;19;20422;-95
2023/12/10 10:05:08;;;;;;;10.40;4.00;;;;;;;7.41;100.00;95207.78;7398073;19;20424;-96
2023/12/10 10:07:36;;;;;;;7.10;3.30;;;;;;;6.98;100.00;95136.50;7398769;19;20847;-95
2023/12/10 10:10:10;;;;;;;13.10;3.57;;;;;;;7.49;100.00;95208.13;7397365;19;20383;-96
2023/12/10 10:12:42;;;;;;;8.80;2.80;;;;;;;7.95;100.00;95275.47;7396575;19;20402;-95
2023/12/10 10:15:43;;;;;;;7.20;2.57;;;;;;;8.17;100.00;95305.91;7398122;19;20373;-96
2023/12/10 10:18:14;;;;;;;9.87;5.40;;;;;;;7.95;100.00;95272.84;7397694;19;20366;-96
2023/12/10 10:20:43;;;;;;;14.40;3.30;;;;;;;7.55;100.00;95228.53;7397460;19;20690;-96
2023/12/10 10:23:11;;;;;;;9.00;2.67;;;;;;;7.76;100.00;95260.06;7398444;19;20683;-95
2023/12/10 10:25:39;;;;;;;5.73;2.53;;;;;;;7.74;100.00;95259.63;7398456;19;20362;-95
2023/12/10 10:28:11;;;;;;;14.83;5.33;;;;;;;7.59;100.00;95241.78;7398338;19;20457;-96
2023/12/10 10:30:38;;;;;;;8.93;3.50;;;;;;;7.83;100.00;95270.06;7397850;19;20391;-94
2023/12/10 10:33:09;;;;;;;12.13;3.40;;;;;;;7.13;100.00;95168.13;7404805;19;20372;-96
2023/12/10 10:35:40;;;;;;;10.87;4.30;;;;;;;8.07;100.00;95297.28;7405251;19;20383;-94
2023/12/10 10:38:13;;;;;;;7.60;3.80;;;;;;;8.23;100.00;95312.53;7404469;19;20435;-95
2023/12/10 10:40:54;;;;;;;10.30;3.20;;;;;;;8.09;100.00;95310.03;7403806;19;20403;-94
2023/12/10 10:43:21;;;;;;;12.80;3.70;;;;;;;7.76;100.00;95255.63;7404786;19;20420;-95
2023/12/10 10:45:52;;;;;;;7.13;2.67;;;;;;;7.57;100.00;95233.47;7404363;19;20385;-95
2023/12/10 10:48:25;;;;;;;14.90;2.97;;;;;;;8.46;100.00;95357.59;7405254;19;20370;-95
2023/12/10 10:50:56;;;;;;;6.73;3.53;;;;;;;8.21;100.00;95309.44;7402169;19;20718;-95
2023/12/10 10:53:32;;;;;;;14.97;3.87;;;;;;;7.94;100.00;95279.91;7404761;19;20665;-95
2023/12/10 10:56:04;;;;;;;7.30;2.93;;;;;;;7.85;100.00;95258.25;7404447;19;20916;-95
2023/12/10 10:58:32;;;;;;;8.80;2.30;;;;;;;7.86;100.00;95246.72;7402677;19;20421;-94
2023/12/10 11:01:00;;;;;;;7.20;2.70;;;;;;;8.28;100.00;95302.69;7403483;19;20746;-96
2023/12/10 11:03:30;;;;;;;7.40;3.47;;;;;;;8.01;100.00;95246.28;7404435;19;20377;-96
2023/12/10 11:06:02;;;;;;;14.07;3.30;;;;;;;7.62;100.00;95197.53;7404286;19;20386;-95
2023/12/10 11:08:36;;;;;;;16.20;3.07;;;;;;;8.57;100.00;95322.22;7404550;19;20386;-95
2023/12/10 11:11:04;;;;;;;24.20;4.60;;;;;;;8.15;100.00;95256.56;7401591;19;20510;-95
2023/12/10 11:13:45;;;;;;;7.97;3.43;;;;;;;8.89;100.00;95362.78;7404566;19;20379;-95
2023/12/10 11:16:13;;;;;;;6.40;3.80;;;;;;;8.30;100.00;95276.25;7405592;19;20379;-96
2023/12/10 11:18:57;;;;;;;9.23;2.70;;;;;;;8.65;100.00;95311.75;7404939;19;20416;-96
2023/12/10 11:21:25;;;;;;;8.57;2.33;;;;;;;8.53;100.00;95310.84;7410979;19;20399;-96
2023/12/10 11:23:52;;;;;;;12.57;3.40;;;;;;;7.74;100.00;95181.28;7409858;19;20364;-96
2023/12/10 11:26:19;;;;;;;7.03;2.33;;;;;;;8.43;100.00;95292.84;7411788;19;20889;-96
2023/12/10 11:28:47;;;;;;;7.33;3.97;;;;;;;8.24;100.00;95259.97;7414775;19;20382;-96
2023/12/10 11:31:14;;;;;;;14.73;3.67;;;;;;;7.82;100.00;95198.78;7414284;19;20434;-96
2023/12/10 11:33:42;;;;;;;12.80;5.30;;;;;;;8.42;100.00;95284.25;7418086;19;20404;-96
2023/12/10 11:36:10;;;;;;;10.13;4.73;;;;;;;8.01;100.00;95225.38;7415652;19;20415;-96